Terminal Aerodrome Forecast
Issued by NWS

Home | Current Version | Previous Version | Text Only | Print | Product List | Glossary On
Versions: 1 2 3 4 5 6 7 8 9 10 11 12 13 14 15 16 17 18 19 20 21 22
000
FTUS45 KGJT 021730
TAFMTJ
TAF
KMTJ 021730Z 0218/0318 35005KT P6SM FEW100 BKN250
     FM022100 31010KT P6SM VCTS FEW100CB BKN200
     FM030200 13006KT P6SM FEW100 BKN200
     FM031400 VRB03KT P6SM FEW200=

USA.gov is the U.S. government's official web portal to all federal, state and local government web resources and services.